createdAt,value
2023-05-11T00:00:35.034Z,11.47
2023-05-11T00:03:01.401Z,9.17
2023-05-11T00:05:27.829Z,8.17
2023-05-11T00:07:54.150Z,8.10
2023-05-11T00:10:20.712Z,7.47
2023-05-11T00:12:47.159Z,6.67
2023-05-11T00:15:13.501Z,5.37
2023-05-11T00:17:39.829Z,5.40
2023-05-11T00:20:07.048Z,5.20
2023-05-11T00:22:33.498Z,4.33
2023-05-11T00:24:59.865Z,4.03
2023-05-11T00:27:26.382Z,3.70
2023-05-11T00:29:52.902Z,3.67
2023-05-11T00:32:19.253Z,3.23
2023-05-11T00:34:45.881Z,3.17
2023-05-11T00:37:12.411Z,3.10
2023-05-11T00:39:40.699Z,2.80
2023-05-11T00:42:07.267Z,6.30
2023-05-11T00:44:33.747Z,2.80
2023-05-11T00:47:00.289Z,2.97
2023-05-11T00:49:26.835Z,2.90
2023-05-11T00:51:53.332Z,2.80
2023-05-11T00:54:19.997Z,2.70
2023-05-11T00:56:46.451Z,4.97
2023-05-11T00:59:14.010Z,3.30
2023-05-11T01:01:40.641Z,2.80
2023-05-11T01:04:07.657Z,2.77
2023-05-11T01:06:47.794Z,2.20
2023-05-11T01:09:29.991Z,2.00
2023-05-11T01:12:33.911Z,1.90
2023-05-11T01:15:10.863Z,2.03
2023-05-11T01:17:46.389Z,2.13
2023-05-11T01:20:18.682Z,2.00
2023-05-11T01:23:23.066Z,2.43
2023-05-11T01:26:08.170Z,2.73
2023-05-11T01:29:08.265Z,3.43
2023-05-11T01:31:37.112Z,3.50
2023-05-11T01:34:16.961Z,3.97
2023-05-11T01:36:51.706Z,4.13
2023-05-11T01:39:25.095Z,4.50
2023-05-11T01:41:54.090Z,4.70
2023-05-11T01:44:25.762Z,4.57
2023-05-11T01:46:53.197Z,4.80
2023-05-11T01:49:21.757Z,5.00
2023-05-11T01:51:51.442Z,5.07
2023-05-11T01:54:20.635Z,5.53
2023-05-11T01:56:48.997Z,4.80
2023-05-11T01:59:18.918Z,5.10
2023-05-11T02:01:45.913Z,5.63
2023-05-11T02:04:14.413Z,5.07
2023-05-11T02:06:43.597Z,5.07
2023-05-11T02:09:12.221Z,5.13
2023-05-11T02:11:40.332Z,5.10
2023-05-11T02:14:09.200Z,4.57
2023-05-11T02:16:35.953Z,4.27
2023-05-11T02:19:04.158Z,3.93
2023-05-11T02:21:32.560Z,3.40
2023-05-11T02:24:01.594Z,3.70
2023-05-11T02:26:28.085Z,3.30
2023-05-11T02:28:54.925Z,2.90
2023-05-11T02:31:29.308Z,2.70
2023-05-11T02:34:04.395Z,3.00
2023-05-11T02:36:33.800Z,3.03
2023-05-11T02:39:08.312Z,3.07
2023-05-11T02:41:41.886Z,2.93
2023-05-11T02:44:11.232Z,3.17
2023-05-11T02:46:40.305Z,3.27
2023-05-11T02:49:09.920Z,3.50
2023-05-11T02:51:38.697Z,3.30
2023-05-11T02:54:10.790Z,3.33
2023-05-11T02:56:38.264Z,3.53
2023-05-11T02:59:05.208Z,3.93
2023-05-11T03:01:32.707Z,3.83
2023-05-11T03:03:59.197Z,4.20
2023-05-11T03:06:25.777Z,5.67
2023-05-11T03:08:52.682Z,4.30
2023-05-11T03:11:19.958Z,4.10
2023-05-11T03:13:46.839Z,4.40
2023-05-11T03:16:14.470Z,4.40
2023-05-11T03:18:41.876Z,4.93
2023-05-11T03:21:08.874Z,4.73
2023-05-11T03:23:37.297Z,4.33
2023-05-11T03:26:06.165Z,5.23
2023-05-11T03:28:33.846Z,4.83
2023-05-11T03:31:00.396Z,4.80
2023-05-11T03:33:26.960Z,5.07
2023-05-11T03:35:55.089Z,5.50
2023-05-11T03:38:23.413Z,5.43
2023-05-11T03:40:52.632Z,7.27
2023-05-11T03:43:20.941Z,6.27
2023-05-11T03:45:50.770Z,5.90
2023-05-11T03:48:18.541Z,5.97
2023-05-11T03:50:45.324Z,7.10
2023-05-11T03:53:12.555Z,6.90
2023-05-11T03:55:39.337Z,7.30
2023-05-11T03:58:09.618Z,6.70
2023-05-11T04:00:40.985Z,7.63
2023-05-11T04:03:09.238Z,7.33
2023-05-11T04:05:35.948Z,7.93
2023-05-11T04:08:03.989Z,7.67
2023-05-11T04:10:30.513Z,8.10
2023-05-11T04:12:57.268Z,8.40
2023-05-11T04:15:23.868Z,8.53
2023-05-11T04:17:50.724Z,8.17
2023-05-11T04:20:17.522Z,8.10
2023-05-11T04:22:44.090Z,9.23
2023-05-11T04:25:10.628Z,8.63
2023-05-11T04:27:37.094Z,9.33
2023-05-11T04:30:03.773Z,9.23
2023-05-11T04:32:30.351Z,9.83
2023-05-11T04:34:56.853Z,9.67
2023-05-11T04:37:23.306Z,10.00
2023-05-11T04:39:49.635Z,9.73
2023-05-11T04:42:16.120Z,11.10
2023-05-11T04:44:42.425Z,9.97
2023-05-11T04:47:08.802Z,10.23
2023-05-11T04:49:35.843Z,10.47
2023-05-11T04:52:02.183Z,10.63
2023-05-11T04:54:29.811Z,11.63
2023-05-11T04:56:56.531Z,11.10
2023-05-11T04:59:23.038Z,10.60
2023-05-11T05:01:49.634Z,11.00
2023-05-11T05:04:16.766Z,11.80
2023-05-11T05:06:43.305Z,11.13
2023-05-11T05:09:11.050Z,11.57
2023-05-11T05:11:37.580Z,11.43
2023-05-11T05:14:03.948Z,11.73
2023-05-11T05:16:32.458Z,11.07
2023-05-11T05:18:59.216Z,11.33
2023-05-11T05:21:25.867Z,11.20
2023-05-11T05:23:52.286Z,12.90
2023-05-11T05:26:18.680Z,12.97
2023-05-11T05:28:45.068Z,12.47
2023-05-11T05:31:11.612Z,12.67
2023-05-11T05:33:39.273Z,14.00
2023-05-11T05:36:05.789Z,13.97
2023-05-11T05:38:32.262Z,13.97
2023-05-11T05:40:58.962Z,14.13
2023-05-11T05:43:25.450Z,14.27
2023-05-11T05:45:51.917Z,14.60
2023-05-11T05:48:18.299Z,14.87
2023-05-11T05:50:44.659Z,15.17
2023-05-11T05:53:11.169Z,17.67
2023-05-11T05:55:37.559Z,16.77
2023-05-11T05:58:04.008Z,16.73
2023-05-11T06:00:31.348Z,18.73
2023-05-11T06:02:57.801Z,15.80
2023-05-11T06:05:24.260Z,17.10
2023-05-11T06:08:01.885Z,17.07
2023-05-11T06:10:35.900Z,19.47
2023-05-11T06:13:02.293Z,18.53
2023-05-11T06:15:28.623Z,17.17
2023-05-11T06:17:54.980Z,20.50
2023-05-11T06:20:21.781Z,20.03
2023-05-11T06:22:48.166Z,21.10
2023-05-11T06:25:15.041Z,20.33
2023-05-11T06:27:41.466Z,20.07
2023-05-11T06:30:08.349Z,20.50
2023-05-11T06:32:35.146Z,20.57
2023-05-11T06:35:02.149Z,20.20
2023-05-11T06:37:31.972Z,20.60
2023-05-11T06:39:59.278Z,21.57
2023-05-11T06:42:25.673Z,20.17
2023-05-11T06:44:52.086Z,20.13
2023-05-11T06:47:18.600Z,20.37
2023-05-11T06:49:45.058Z,20.10
2023-05-11T06:52:11.404Z,20.60
2023-05-11T06:54:37.864Z,19.47
2023-05-11T06:57:04.224Z,19.00
2023-05-11T06:59:30.614Z,18.80
2023-05-11T07:01:56.998Z,19.47
2023-05-11T07:04:23.497Z,19.37
2023-05-11T07:06:49.926Z,18.70
2023-05-11T07:09:16.773Z,18.80
2023-05-11T07:11:43.175Z,16.10
2023-05-11T07:14:09.565Z,16.73
2023-05-11T07:16:38.340Z,15.77
2023-05-11T07:19:05.738Z,16.03
2023-05-11T07:21:32.805Z,16.03
2023-05-11T07:24:00.082Z,14.97
2023-05-11T07:26:26.523Z,15.37
2023-05-11T07:28:53.032Z,15.40
2023-05-11T07:31:19.503Z,14.43
2023-05-11T07:33:45.940Z,13.70
2023-05-11T07:36:12.403Z,14.57
2023-05-11T07:38:38.882Z,14.93
2023-05-11T07:41:06.887Z,15.10
2023-05-11T07:43:33.866Z,15.27
2023-05-11T07:46:00.383Z,14.40
2023-05-11T07:48:26.853Z,14.67
2023-05-11T07:50:53.354Z,14.90
2023-05-11T07:53:19.830Z,14.77
2023-05-11T07:55:46.380Z,15.50
2023-05-11T07:58:12.914Z,13.90
2023-05-11T08:00:39.365Z,15.27
2023-05-11T08:03:06.541Z,14.90
2023-05-11T08:05:35.932Z,14.23
2023-05-11T08:08:02.591Z,15.53
2023-05-11T08:10:29.180Z,14.67
2023-05-11T08:12:55.711Z,15.73
2023-05-11T08:15:22.162Z,14.80
2023-05-11T08:17:48.599Z,14.70
2023-05-11T08:20:15.317Z,14.60
2023-05-11T08:22:41.784Z,14.50
2023-05-11T08:25:08.658Z,14.93
2023-05-11T08:27:35.016Z,15.17
2023-05-11T08:30:01.549Z,16.40
2023-05-11T08:32:28.210Z,16.80
2023-05-11T08:34:54.766Z,16.73
2023-05-11T08:37:21.282Z,16.53
2023-05-11T08:39:48.162Z,15.87
2023-05-11T08:42:19.927Z,15.87
2023-05-11T08:44:48.062Z,15.90
2023-05-11T08:49:44.822Z,16.13
2023-05-11T08:52:14.096Z,14.57
2023-05-11T08:54:40.581Z,13.63
2023-05-11T08:57:07.589Z,14.43
2023-05-11T08:59:34.373Z,14.13
2023-05-11T09:02:01.449Z,13.47
2023-05-11T09:04:28.236Z,13.30
2023-05-11T09:06:55.010Z,13.70
2023-05-11T09:09:21.724Z,13.20
2023-05-11T09:11:48.334Z,12.63
2023-05-11T09:14:15.037Z,13.03
2023-05-11T09:16:41.716Z,12.63
2023-05-11T09:19:16.227Z,13.83
2023-05-11T09:21:42.859Z,11.80
2023-05-11T09:24:13.073Z,10.80
2023-05-11T09:26:39.569Z,10.93
2023-05-11T09:29:05.977Z,9.63
2023-05-11T09:31:47.332Z,10.50
2023-05-11T09:34:18.100Z,10.27
2023-05-11T09:36:46.845Z,11.17
2023-05-11T09:39:16.623Z,11.43
2023-05-11T09:41:43.943Z,11.00
2023-05-11T09:44:13.810Z,11.30
2023-05-11T09:46:45.027Z,11.17
2023-05-11T09:49:12.286Z,10.80
2023-05-11T09:51:40.618Z,11.70
2023-05-11T09:54:19.114Z,10.90
2023-05-11T09:56:54.218Z,11.13
2023-05-11T09:59:40.633Z,11.57
2023-05-11T10:02:26.615Z,11.03
2023-05-11T10:04:58.038Z,10.17
2023-05-11T10:07:32.368Z,11.43
2023-05-11T10:10:04.139Z,10.37
2023-05-11T10:12:33.456Z,9.67
2023-05-11T10:15:09.242Z,9.83
2023-05-11T10:17:37.073Z,9.47
2023-05-11T10:20:05.556Z,8.90
2023-05-11T10:22:32.828Z,8.83
2023-05-11T10:25:00.059Z,9.37
2023-05-11T10:27:27.143Z,8.20
2023-05-11T10:29:53.841Z,9.20
2023-05-11T10:32:21.313Z,8.23
2023-05-11T10:34:50.183Z,7.70
2023-05-11T10:37:17.285Z,7.27
2023-05-11T10:39:48.441Z,7.67
2023-05-11T10:43:10.536Z,7.67
2023-05-11T10:45:49.643Z,7.67
2023-05-11T10:48:47.179Z,8.23
2023-05-11T10:51:31.808Z,7.17
2023-05-11T10:54:10.560Z,8.00
2023-05-11T10:56:51.018Z,7.13
2023-05-11T10:59:33.994Z,7.47
2023-05-11T11:02:01.766Z,8.23
2023-05-11T11:04:46.571Z,7.70
2023-05-11T11:07:17.716Z,8.43
2023-05-11T11:09:52.473Z,8.27
2023-05-11T11:12:20.501Z,8.90
2023-05-11T11:15:06.332Z,9.13
2023-05-11T11:17:35.044Z,8.80
2023-05-11T11:20:09.195Z,8.40
2023-05-11T11:22:35.861Z,10.38
2023-05-11T11:25:05.663Z,8.70
2023-05-11T11:27:41.226Z,8.87
2023-05-11T11:30:39.865Z,8.67
2023-05-11T11:33:06.963Z,7.40
2023-05-11T11:35:39.480Z,8.47
2023-05-11T11:38:10.920Z,8.17
2023-05-11T11:43:22.320Z,8.20
2023-05-11T11:46:02.611Z,9.70
2023-05-11T11:48:37.546Z,9.80
2023-05-11T11:51:11.389Z,9.23
2023-05-11T11:53:38.113Z,9.67
2023-05-11T11:56:07.371Z,10.13
2023-05-11T11:58:43.131Z,9.63
2023-05-11T12:01:12.778Z,9.63
2023-05-11T12:03:41.385Z,9.63
2023-05-11T12:06:09.812Z,9.57
2023-05-11T12:08:37.500Z,10.73
2023-05-11T12:11:05.585Z,10.17
2023-05-11T12:13:33.104Z,11.40
2023-05-11T12:16:13.230Z,11.77
2023-05-11T12:18:40.644Z,10.90
2023-05-11T12:21:07.774Z,12.20
2023-05-11T12:23:34.524Z,11.47
2023-05-11T12:26:06.030Z,10.80
2023-05-11T12:28:33.469Z,10.20
2023-05-11T12:31:00.670Z,10.80
2023-05-11T12:33:27.402Z,10.17
2023-05-11T12:35:55.205Z,10.63
2023-05-11T12:38:21.950Z,11.57
2023-05-11T12:40:53.829Z,10.93
2023-05-11T12:43:22.042Z,10.33
2023-05-11T12:45:49.206Z,9.53
2023-05-11T12:48:16.017Z,11.03
2023-05-11T12:50:46.370Z,11.67
2023-05-11T12:53:17.959Z,11.53
2023-05-11T12:55:44.909Z,11.60
2023-05-11T12:58:13.546Z,10.43
2023-05-11T13:00:56.407Z,9.67
2023-05-11T13:03:31.229Z,12.10
2023-05-11T13:06:12.367Z,12.30
2023-05-11T13:08:44.326Z,12.03
2023-05-11T13:11:25.349Z,11.90
2023-05-11T13:13:53.400Z,11.07
2023-05-11T13:16:33.409Z,11.63
2023-05-11T13:19:03.326Z,10.80
2023-05-11T13:21:30.374Z,11.70
2023-05-11T13:23:56.806Z,10.87
2023-05-11T13:26:24.907Z,10.53
2023-05-11T13:29:05.845Z,10.67
2023-05-11T13:31:45.887Z,11.43
2023-05-11T13:34:12.373Z,10.13
2023-05-11T13:36:39.507Z,10.20
2023-05-11T13:39:06.920Z,11.63
2023-05-11T13:41:33.646Z,10.87
2023-05-11T13:44:00.486Z,10.07
2023-05-11T13:46:27.112Z,10.33
2023-05-11T13:48:54.926Z,11.73
2023-05-11T13:51:22.207Z,11.30
2023-05-11T13:53:48.778Z,10.10
2023-05-11T13:56:16.406Z,9.97
2023-05-11T13:58:42.859Z,10.17
2023-05-11T14:01:09.263Z,11.63
2023-05-11T14:03:35.758Z,12.90
2023-05-11T14:06:03.106Z,12.27
2023-05-11T14:08:29.555Z,12.80
2023-05-11T14:10:55.986Z,12.77
2023-05-11T14:13:22.385Z,13.53
2023-05-11T14:15:49.523Z,13.47
2023-05-11T14:18:16.040Z,14.57
2023-05-11T14:20:44.350Z,13.30
2023-05-11T14:23:10.911Z,13.53
2023-05-11T14:25:37.464Z,13.20
2023-05-11T14:28:03.979Z,14.87
2023-05-11T14:30:31.024Z,13.30
2023-05-11T14:32:57.614Z,13.00
2023-05-11T14:35:24.086Z,13.23
2023-05-11T14:37:50.539Z,14.37
2023-05-11T14:40:17.095Z,14.17
2023-05-11T14:42:43.625Z,13.63
2023-05-11T14:45:10.619Z,13.27
2023-05-11T14:47:37.156Z,12.57
2023-05-11T14:50:03.720Z,13.23
2023-05-11T14:52:30.629Z,13.07
2023-05-11T14:54:56.963Z,12.93
2023-05-11T14:57:23.384Z,12.80
2023-05-11T14:59:58.885Z,13.37
2023-05-11T15:02:26.962Z,13.10
2023-05-11T15:04:53.487Z,11.47
2023-05-11T15:07:19.857Z,12.70
2023-05-11T15:09:46.265Z,12.70
2023-05-11T15:12:12.746Z,11.63
2023-05-11T15:14:39.136Z,12.87
2023-05-11T15:17:05.814Z,12.07
2023-05-11T15:19:32.271Z,12.27
2023-05-11T15:21:58.577Z,12.00
2023-05-11T15:24:25.204Z,12.03
2023-05-11T15:26:51.622Z,11.77
2023-05-11T15:29:18.149Z,12.20
2023-05-11T15:31:44.550Z,12.43
2023-05-11T15:34:11.055Z,11.63
2023-05-11T15:36:37.467Z,11.77
2023-05-11T15:39:04.055Z,11.40
2023-05-11T15:41:30.470Z,12.10
2023-05-11T15:43:56.813Z,11.70
2023-05-11T15:46:24.800Z,12.37
2023-05-11T15:48:51.807Z,12.07
2023-05-11T15:51:18.998Z,12.50
2023-05-11T15:53:45.812Z,12.87
2023-05-11T15:56:12.214Z,13.83
2023-05-11T15:58:38.805Z,13.93
2023-05-11T16:01:06.031Z,15.50
2023-05-11T16:03:32.598Z,14.97
2023-05-11T16:05:59.298Z,17.53
2023-05-11T16:08:25.811Z,17.90
2023-05-11T16:10:52.554Z,18.70
2023-05-11T16:13:18.975Z,18.57
2023-05-11T16:15:45.447Z,20.07
2023-05-11T16:18:12.019Z,21.43
2023-05-11T16:20:38.478Z,23.13
2023-05-11T16:23:05.275Z,23.47
2023-05-11T16:25:31.653Z,23.80
2023-05-11T16:27:58.035Z,23.87
2023-05-11T16:30:25.645Z,24.23
2023-05-11T16:32:53.720Z,22.80
2023-05-11T16:35:20.708Z,22.90
2023-05-11T16:37:47.903Z,22.83
2023-05-11T16:40:14.769Z,24.90
2023-05-11T16:42:41.107Z,24.23
2023-05-11T16:45:07.980Z,24.00
2023-05-11T16:47:34.695Z,25.30
2023-05-11T16:50:01.223Z,26.50
2023-05-11T16:52:27.617Z,25.87
2023-05-11T16:54:54.151Z,25.37
2023-05-11T16:57:21.537Z,26.27
2023-05-11T16:59:48.351Z,24.63
2023-05-11T17:02:14.729Z,26.00
2023-05-11T17:04:41.127Z,26.67
2023-05-11T17:07:10.088Z,27.20
2023-05-11T17:09:36.484Z,26.97
2023-05-11T17:12:07.884Z,25.80
2023-05-11T17:14:34.216Z,19.33
2023-05-11T17:17:00.600Z,13.43
2023-05-11T17:19:27.153Z,13.47
2023-05-11T17:21:53.467Z,11.43
2023-05-11T17:24:19.837Z,12.30
2023-05-11T17:26:48.297Z,10.33
2023-05-11T17:29:16.625Z,10.83
2023-05-11T17:31:43.363Z,10.43
2023-05-11T17:34:10.399Z,9.30
2023-05-11T17:36:37.033Z,10.87
2023-05-11T17:39:03.688Z,10.20
2023-05-11T17:41:30.032Z,9.80
2023-05-11T17:43:56.433Z,10.20
2023-05-11T17:46:22.855Z,9.63
2023-05-11T17:48:49.534Z,9.67
2023-05-11T17:51:16.094Z,8.50
2023-05-11T17:53:42.422Z,8.67
2023-05-11T17:56:11.652Z,9.33
2023-05-11T17:58:38.247Z,8.50
2023-05-11T18:01:09.040Z,9.17
2023-05-11T18:03:35.872Z,8.53
2023-05-11T18:06:02.557Z,8.23
2023-05-11T18:08:29.020Z,8.80
2023-05-11T18:10:55.700Z,9.20
2023-05-11T18:13:22.726Z,8.90
2023-05-11T18:15:49.371Z,8.47
2023-05-11T18:18:15.958Z,8.47
2023-05-11T18:20:45.404Z,8.40
2023-05-11T18:23:12.899Z,8.43
2023-05-11T18:25:39.783Z,9.00
2023-05-11T18:28:06.189Z,9.17
2023-05-11T18:30:33.514Z,9.33
2023-05-11T18:33:00.376Z,9.37
2023-05-11T18:35:26.735Z,8.67
2023-05-11T18:37:53.227Z,8.50
2023-05-11T18:40:20.148Z,8.43
2023-05-11T18:42:49.708Z,8.80
2023-05-11T18:45:17.399Z,8.73
2023-05-11T18:47:46.644Z,8.77
2023-05-11T18:50:13.400Z,9.30
2023-05-11T18:52:39.743Z,9.40
2023-05-11T18:55:06.867Z,10.40
2023-05-11T18:57:34.351Z,10.00
2023-05-11T19:00:01.060Z,9.80
2023-05-11T19:02:27.893Z,9.80
2023-05-11T19:04:54.393Z,9.47
2023-05-11T19:07:20.788Z,10.00
2023-05-11T19:09:47.322Z,9.60
2023-05-11T19:12:13.745Z,10.90
2023-05-11T19:14:40.159Z,10.47
2023-05-11T19:17:06.800Z,9.73
2023-05-11T19:19:34.134Z,9.80
2023-05-11T19:22:00.592Z,11.47
2023-05-11T19:24:27.535Z,11.07
2023-05-11T19:27:05.989Z,10.77
2023-05-11T19:29:34.138Z,11.27
2023-05-11T19:32:00.528Z,12.03
2023-05-11T19:34:27.024Z,12.10
2023-05-11T19:36:53.519Z,12.53
2023-05-11T19:39:19.824Z,12.70
2023-05-11T19:41:46.190Z,13.70
2023-05-11T19:44:12.725Z,13.83
2023-05-11T19:46:45.708Z,14.57
2023-05-11T19:49:16.332Z,14.93
2023-05-11T19:51:43.074Z,16.67
2023-05-11T19:54:10.875Z,16.03
2023-05-11T19:56:37.561Z,17.03
2023-05-11T19:59:04.598Z,16.63
2023-05-11T20:01:31.162Z,18.77
2023-05-11T20:03:57.804Z,17.77
2023-05-11T20:06:25.389Z,19.47
2023-05-11T20:08:52.663Z,20.23
2023-05-11T20:11:19.124Z,20.00
2023-05-11T20:13:46.710Z,19.83
2023-05-11T20:16:13.318Z,20.73
2023-05-11T20:18:39.951Z,24.77
2023-05-11T20:21:07.000Z,21.07
2023-05-11T20:23:35.215Z,20.90
2023-05-11T20:26:03.118Z,21.07
2023-05-11T20:28:29.521Z,21.10
2023-05-11T20:30:56.314Z,21.37
2023-05-11T20:35:53.568Z,20.93
2023-05-11T20:38:20.686Z,21.83
2023-05-11T20:40:47.135Z,21.83
2023-05-11T20:43:15.003Z,21.67
2023-05-11T20:45:41.963Z,21.57
2023-05-11T20:48:08.592Z,21.73
2023-05-11T20:50:35.022Z,20.67
2023-05-11T20:53:01.347Z,21.63
2023-05-11T20:55:27.788Z,22.20
2023-05-11T20:57:54.130Z,22.20
2023-05-11T21:00:20.778Z,22.23
2023-05-11T21:02:47.703Z,21.97
2023-05-11T21:05:14.431Z,21.37
2023-05-11T21:07:40.982Z,21.27
2023-05-11T21:10:07.865Z,21.17
2023-05-11T21:12:34.469Z,22.13
2023-05-11T21:15:01.094Z,21.43
2023-05-11T21:17:27.676Z,20.80
2023-05-11T21:19:54.039Z,21.27
2023-05-11T21:22:20.513Z,21.23
2023-05-11T21:24:47.523Z,21.77
2023-05-11T21:27:14.989Z,21.37
2023-05-11T21:29:41.910Z,21.03
2023-05-11T21:32:08.316Z,21.00
2023-05-11T21:34:34.668Z,22.30
2023-05-11T21:37:02.429Z,21.23
2023-05-11T21:39:28.839Z,20.80
2023-05-11T21:41:55.397Z,21.63
2023-05-11T21:44:21.855Z,23.10
2023-05-11T21:46:48.269Z,23.23
2023-05-11T21:49:14.766Z,23.70
2023-05-11T21:51:41.203Z,22.50
2023-05-11T21:54:07.974Z,22.53
2023-05-11T21:56:34.568Z,25.70
2023-05-11T21:59:01.566Z,23.13
2023-05-11T22:01:27.955Z,23.10
2023-05-11T22:03:54.478Z,24.30
2023-05-11T22:06:21.095Z,23.70
2023-05-11T22:08:47.468Z,23.17
2023-05-11T22:11:14.033Z,24.90
2023-05-11T22:13:40.418Z,24.83
2023-05-11T22:16:07.319Z,25.17
2023-05-11T22:18:33.811Z,24.93
2023-05-11T22:21:00.315Z,25.37
2023-05-11T22:23:26.880Z,24.57
2023-05-11T22:25:53.291Z,25.83
2023-05-11T22:28:19.650Z,24.87
2023-05-11T22:30:46.056Z,26.33
2023-05-11T22:33:12.481Z,24.90
2023-05-11T22:35:39.851Z,23.60
2023-05-11T22:38:06.288Z,23.60
2023-05-11T22:40:32.665Z,21.97
2023-05-11T22:42:59.015Z,21.23
2023-05-11T22:45:25.473Z,22.00
2023-05-11T22:47:51.984Z,21.50
2023-05-11T22:50:18.675Z,20.90
2023-05-11T22:52:45.371Z,21.87
2023-05-11T22:55:11.771Z,21.53
2023-05-11T22:57:38.113Z,21.63
2023-05-11T23:00:05.334Z,21.30
2023-05-11T23:02:33.269Z,20.73
2023-05-11T23:04:59.783Z,20.93
2023-05-11T23:07:26.152Z,21.70
2023-05-11T23:09:52.943Z,21.27
2023-05-11T23:12:19.691Z,21.00
2023-05-11T23:14:46.063Z,21.30
2023-05-11T23:17:13.041Z,23.07
2023-05-11T23:19:39.522Z,21.03
2023-05-11T23:22:05.911Z,21.73
2023-05-11T23:24:32.280Z,21.10
2023-05-11T23:26:58.818Z,22.83
2023-05-11T23:29:27.163Z,22.37
2023-05-11T23:31:53.680Z,22.37
2023-05-11T23:34:20.155Z,23.07
2023-05-11T23:36:46.640Z,21.90
2023-05-11T23:39:13.174Z,24.70
2023-05-11T23:41:39.694Z,24.70
2023-05-11T23:44:06.079Z,24.73
2023-05-11T23:46:32.512Z,25.53
2023-05-11T23:48:58.937Z,24.40
2023-05-11T23:51:26.085Z,24.73
2023-05-11T23:53:52.431Z,22.97
2023-05-11T23:56:18.806Z,24.83
2023-05-11T23:58:46.238Z,24.40
